createdAt,value
2022-12-04T00:09:21.970Z,141.30
2022-12-04T00:19:24.079Z,155.73
2022-12-04T00:29:26.148Z,105.03
2022-12-04T00:39:30.675Z,148.97
2022-12-04T00:49:33.037Z,146.50
2022-12-04T00:59:35.000Z,173.27
2022-12-04T01:09:38.078Z,150.47
2022-12-04T01:19:42.239Z,153.93
2022-12-04T01:29:47.056Z,56.60
2022-12-04T01:39:51.460Z,133.17
2022-12-04T01:49:53.855Z,101.97
2022-12-04T02:00:00.804Z,93.97
2022-12-04T02:10:06.560Z,93.73
2022-12-04T02:20:24.095Z,109.13
2022-12-04T02:30:35.592Z,115.87
2022-12-04T02:40:57.365Z,92.13
2022-12-04T02:51:01.205Z,74.33
2022-12-04T03:01:19.739Z,95.33
2022-12-04T03:11:22.127Z,75.07
2022-12-04T03:21:28.658Z,79.60
2022-12-04T03:31:40.595Z,67.20
2022-12-04T03:42:00.030Z,74.63
2022-12-04T03:52:11.017Z,55.57
2022-12-04T04:02:18.698Z,60.83
2022-12-04T04:12:23.189Z,71.10
2022-12-04T04:22:54.499Z,64.80
2022-12-04T04:33:16.258Z,61.33
2022-12-04T04:43:19.291Z,65.47
2022-12-04T04:53:29.616Z,66.33
2022-12-04T05:03:32.398Z,77.00
2022-12-04T05:13:36.787Z,64.23
2022-12-04T05:23:43.403Z,69.27
2022-12-04T05:33:45.445Z,71.83
2022-12-04T05:43:54.941Z,73.23
2022-12-04T05:54:02.459Z,54.90
2022-12-04T06:04:04.619Z,61.57
2022-12-04T06:14:12.885Z,58.40
2022-12-04T06:24:18.459Z,61.03
2022-12-04T06:34:20.596Z,41.77
2022-12-04T06:44:22.571Z,57.23
2022-12-04T06:54:24.543Z,48.47
2022-12-04T07:04:29.055Z,55.73
2022-12-04T07:14:31.105Z,52.33
2022-12-04T07:24:35.353Z,57.20
2022-12-04T07:34:39.821Z,53.50
2022-12-04T07:44:41.931Z,51.70
2022-12-04T07:54:47.134Z,52.00
2022-12-04T08:04:49.230Z,45.90
2022-12-04T08:14:54.732Z,47.97
2022-12-04T08:24:56.768Z,44.17
2022-12-04T08:34:59.283Z,44.73
2022-12-04T08:45:01.296Z,46.83
2022-12-04T08:55:08.402Z,42.53
2022-12-04T09:05:15.199Z,38.27
2022-12-04T09:15:17.740Z,42.93
2022-12-04T09:25:22.195Z,45.65
2022-12-04T09:35:24.331Z,31.20
2022-12-04T09:45:29.036Z,29.00
2022-12-04T09:55:41.553Z,41.93
2022-12-04T10:06:02.448Z,42.17
2022-12-04T10:16:22.805Z,35.50
2022-12-04T10:26:31.223Z,41.20
2022-12-04T10:36:34.675Z,36.40
2022-12-04T10:46:45.541Z,35.83
2022-12-04T10:56:58.919Z,33.30
2022-12-04T11:07:22.338Z,30.83
2022-12-04T11:17:24.363Z,38.13
2022-12-04T11:27:31.790Z,30.33
2022-12-04T11:37:43.639Z,42.10
2022-12-04T11:47:57.349Z,33.70
2022-12-04T11:58:16.088Z,39.83
2022-12-04T12:08:26.361Z,43.13
2022-12-04T12:18:51.172Z,38.33
2022-12-04T12:29:20.725Z,21.87
2022-12-04T12:39:26.868Z,30.87
2022-12-04T12:49:34.970Z,39.67
2022-12-04T12:59:42.780Z,36.60
2022-12-04T13:09:57.049Z,39.50
2022-12-04T13:20:09.966Z,36.53
2022-12-04T13:30:21.358Z,38.83
2022-12-04T13:40:39.876Z,42.90
2022-12-04T13:50:42.067Z,34.00
2022-12-04T14:00:46.489Z,35.50
2022-12-04T14:11:07.424Z,38.60
2022-12-04T14:21:12.320Z,35.07
2022-12-04T14:31:36.034Z,31.03
2022-12-04T14:41:39.005Z,28.30
2022-12-04T14:52:07.265Z,32.97
2022-12-04T15:02:16.850Z,30.40
2022-12-04T15:12:37.171Z,35.03
2022-12-04T15:22:41.659Z,32.17
2022-12-04T15:32:44.055Z,32.27
2022-12-04T15:42:46.258Z,29.80
2022-12-04T15:53:06.596Z,35.90
2022-12-04T16:03:28.492Z,33.90
2022-12-04T16:13:38.794Z,38.13
2022-12-04T16:23:41.949Z,32.57
2022-12-04T16:33:46.843Z,23.33
2022-12-04T16:43:58.315Z,35.13
2022-12-04T16:54:00.474Z,34.03
2022-12-04T17:04:02.488Z,35.53
2022-12-04T17:14:07.690Z,35.93
2022-12-04T17:24:09.803Z,30.27
2022-12-04T17:34:16.742Z,28.20
2022-12-04T17:44:21.299Z,29.63
2022-12-04T17:54:25.861Z,27.87
2022-12-04T18:04:28.051Z,29.50
2022-12-04T18:14:32.695Z,30.47
2022-12-04T18:24:37.049Z,26.20
2022-12-04T18:34:39.096Z,24.43
2022-12-04T18:44:43.586Z,27.50
2022-12-04T18:54:45.740Z,27.67
2022-12-04T19:04:50.187Z,26.23
2022-12-04T19:14:52.437Z,24.37
2022-12-04T19:24:58.930Z,28.93
2022-12-04T19:35:03.559Z,24.87
2022-12-04T19:45:06.054Z,27.30
2022-12-04T19:55:10.307Z,26.63
2022-12-04T20:05:12.410Z,30.90
2022-12-04T20:15:17.319Z,24.60
2022-12-04T20:25:19.420Z,31.07
2022-12-04T20:35:23.775Z,30.80
2022-12-04T20:45:31.123Z,31.20
2022-12-04T20:55:40.521Z,27.37
2022-12-04T21:05:50.695Z,25.20
2022-12-04T21:16:01.873Z,30.03
2022-12-04T21:26:04.013Z,28.73
2022-12-04T21:36:12.398Z,18.97
2022-12-04T21:46:14.676Z,29.00
2022-12-04T21:56:16.667Z,23.37
2022-12-04T22:06:22.491Z,23.30
2022-12-04T22:16:30.688Z,22.63
2022-12-04T22:26:35.602Z,21.50
2022-12-04T22:36:39.853Z,18.87
2022-12-04T22:46:42.113Z,24.13
2022-12-04T22:56:44.395Z,22.00
2022-12-04T23:06:46.419Z,26.27
2022-12-04T23:16:49.486Z,25.60
2022-12-04T23:26:51.625Z,23.27
2022-12-04T23:36:56.181Z,29.10
2022-12-04T23:47:03.572Z,24.20
2022-12-04T23:57:08.082Z,22.70
